createdAt,value
2018-08-23T00:00:43.420Z,87.90
2018-08-23T00:03:17.174Z,87.60
2018-08-23T00:05:50.983Z,87.60
2018-08-23T00:08:19.956Z,87.20
2018-08-23T00:10:49.170Z,87.30
2018-08-23T00:13:17.614Z,87.10
2018-08-23T00:15:46.015Z,87.00
2018-08-23T00:18:14.476Z,87.00
2018-08-23T00:20:42.822Z,87.00
2018-08-23T00:23:11.257Z,86.90
2018-08-23T00:25:39.825Z,86.50
2018-08-23T00:28:08.643Z,86.30
2018-08-23T00:30:37.238Z,86.70
2018-08-23T00:33:06.130Z,87.00
2018-08-23T00:35:38.146Z,87.50
2018-08-23T00:38:07.414Z,87.60
2018-08-23T00:40:44.503Z,87.60
2018-08-23T00:43:14.225Z,87.90
2018-08-23T00:45:42.627Z,87.70
2018-08-23T00:48:11.046Z,88.30
2018-08-23T00:51:00.188Z,88.20
2018-08-23T00:53:30.065Z,88.20
2018-08-23T00:56:12.321Z,88.50
2018-08-23T00:58:47.906Z,89.00
2018-08-23T01:01:16.362Z,89.30
2018-08-23T01:03:45.083Z,89.60
2018-08-23T01:06:19.469Z,90.00
2018-08-23T01:08:47.929Z,89.90
2018-08-23T01:11:16.282Z,90.10
2018-08-23T01:13:45.154Z,90.00
2018-08-23T01:16:14.480Z,90.30
2018-08-23T01:18:43.124Z,90.30
2018-08-23T01:21:11.924Z,90.40
2018-08-23T01:23:42.248Z,90.30
2018-08-23T01:26:10.667Z,90.30
2018-08-23T01:28:39.191Z,90.20
2018-08-23T01:31:21.850Z,90.10
2018-08-23T01:33:53.580Z,90.40
2018-08-23T01:36:28.143Z,90.50
2018-08-23T01:38:56.531Z,90.50
2018-08-23T01:41:24.985Z,90.70
2018-08-23T01:43:53.358Z,90.70
2018-08-23T01:46:25.877Z,90.80
2018-08-23T01:48:54.349Z,90.70
2018-08-23T01:51:22.862Z,90.80
2018-08-23T01:53:51.260Z,90.70
2018-08-23T01:56:19.659Z,90.70
2018-08-23T01:58:48.022Z,90.80
2018-08-23T02:01:17.674Z,90.80
2018-08-23T02:03:46.439Z,90.70
2018-08-23T02:06:14.925Z,90.60
2018-08-23T02:08:43.998Z,90.60
2018-08-23T02:11:12.403Z,90.60
2018-08-23T02:13:40.794Z,90.80
2018-08-23T02:16:09.187Z,90.90
2018-08-23T02:18:37.627Z,91.10
2018-08-23T02:21:10.401Z,91.10
2018-08-23T02:23:52.169Z,91.10
2018-08-23T02:26:20.619Z,91.10
2018-08-23T02:28:50.052Z,91.10
2018-08-23T02:31:18.563Z,90.90
2018-08-23T02:33:46.937Z,91.00
2018-08-23T02:36:16.166Z,91.10
2018-08-23T02:38:50.610Z,91.60
2018-08-23T02:41:19.092Z,91.40
2018-08-23T02:43:47.822Z,91.50
2018-08-23T02:46:16.509Z,91.50
2018-08-23T02:48:45.252Z,91.60
2018-08-23T02:51:13.683Z,91.80
2018-08-23T02:53:44.351Z,91.50
2018-08-23T02:56:15.384Z,91.60
2018-08-23T02:58:56.223Z,91.60
2018-08-23T03:01:25.813Z,91.60
2018-08-23T03:04:06.218Z,91.90
2018-08-23T03:06:38.827Z,91.50
2018-08-23T03:09:08.146Z,91.40
2018-08-23T03:11:37.424Z,91.70
2018-08-23T03:14:06.355Z,91.50
2018-08-23T03:16:47.853Z,91.50
2018-08-23T03:19:16.476Z,91.80
2018-08-23T03:21:45.122Z,91.90
2018-08-23T03:24:13.768Z,91.60
2018-08-23T03:26:42.245Z,91.80
2018-08-23T03:29:10.691Z,91.90
2018-08-23T03:31:39.111Z,92.10
2018-08-23T03:34:07.472Z,92.40
2018-08-23T03:36:35.867Z,92.40
2018-08-23T03:39:05.863Z,92.20
2018-08-23T03:41:34.364Z,92.10
2018-08-23T03:44:02.766Z,92.00
2018-08-23T03:46:35.626Z,92.10
2018-08-23T03:49:06.029Z,92.20
2018-08-23T03:51:37.659Z,92.30
2018-08-23T03:54:06.022Z,92.30
2018-08-23T03:56:34.454Z,92.30
2018-08-23T03:59:02.952Z,92.10
2018-08-23T04:01:31.339Z,92.00
2018-08-23T04:04:00.838Z,92.10
2018-08-23T04:06:33.322Z,92.20
2018-08-23T04:09:01.895Z,92.50
2018-08-23T04:11:30.301Z,92.50
2018-08-23T04:13:58.648Z,92.40
2018-08-23T04:16:29.034Z,92.50
2018-08-23T04:18:57.650Z,92.50
2018-08-23T04:21:26.692Z,92.50
2018-08-23T04:23:55.087Z,92.30
2018-08-23T04:26:23.895Z,92.10
2018-08-23T04:28:52.284Z,92.00
2018-08-23T04:31:20.668Z,91.90
2018-08-23T04:33:49.154Z,91.90
2018-08-23T04:36:27.806Z,91.90
2018-08-23T04:39:07.023Z,91.90
2018-08-23T04:41:35.470Z,91.80
2018-08-23T04:44:09.622Z,91.80
2018-08-23T04:46:38.130Z,91.80
2018-08-23T04:49:07.641Z,91.90
2018-08-23T04:51:37.810Z,91.90
2018-08-23T04:54:06.515Z,91.90
2018-08-23T04:56:34.923Z,91.70
2018-08-23T04:59:03.555Z,91.80
2018-08-23T05:01:31.988Z,91.50
2018-08-23T05:04:00.461Z,91.20
2018-08-23T05:06:28.893Z,90.90
2018-08-23T05:08:57.284Z,91.40
2018-08-23T05:11:25.701Z,91.10
2018-08-23T05:13:54.106Z,90.80
2018-08-23T05:16:22.568Z,90.80
2018-08-23T05:18:51.230Z,90.70
2018-08-23T05:21:19.602Z,90.60
2018-08-23T05:23:47.977Z,90.50
2018-08-23T05:26:17.722Z,90.20
2018-08-23T05:28:59.059Z,90.10
2018-08-23T05:31:28.642Z,90.20
2018-08-23T05:33:59.388Z,90.00
2018-08-23T05:36:27.875Z,89.90
2018-08-23T05:38:56.286Z,89.20
2018-08-23T05:41:24.712Z,89.30
2018-08-23T05:44:02.042Z,88.70
2018-08-23T05:46:34.940Z,89.40
2018-08-23T05:49:03.527Z,87.80
2018-08-23T05:51:33.031Z,87.70
2018-08-23T05:54:01.450Z,86.90
2018-08-23T05:56:29.918Z,85.60
2018-08-23T05:59:03.802Z,85.30
2018-08-23T06:01:32.171Z,84.90
2018-08-23T06:04:00.662Z,84.70
2018-08-23T06:06:30.019Z,85.90
2018-08-23T06:09:00.824Z,84.30
2018-08-23T06:11:29.432Z,83.70
2018-08-23T06:13:57.798Z,82.70
2018-08-23T06:16:26.344Z,82.80
2018-08-23T06:18:54.861Z,82.70
2018-08-23T06:21:23.305Z,81.90
2018-08-23T06:23:53.062Z,81.80
2018-08-23T06:26:34.264Z,81.60
2018-08-23T06:29:02.724Z,81.80
2018-08-23T06:31:31.265Z,81.80
2018-08-23T06:33:59.807Z,81.60
2018-08-23T06:36:28.212Z,81.00
2018-08-23T06:39:01.841Z,80.90
2018-08-23T06:41:30.445Z,80.80
2018-08-23T06:43:58.893Z,81.00
2018-08-23T06:46:27.405Z,80.50
2018-08-23T06:48:56.227Z,80.50
2018-08-23T06:51:24.659Z,80.70
2018-08-23T06:53:55.250Z,80.20
2018-08-23T06:56:23.647Z,79.60
2018-08-23T06:58:52.276Z,79.00
2018-08-23T07:01:33.980Z,78.40
2018-08-23T07:04:07.760Z,77.90
2018-08-23T07:06:36.896Z,77.60
2018-08-23T07:09:13.367Z,77.10
2018-08-23T07:11:41.924Z,77.50
2018-08-23T07:14:11.958Z,76.90
2018-08-23T07:16:41.276Z,76.40
2018-08-23T07:19:24.454Z,75.00
2018-08-23T07:21:53.842Z,75.10
2018-08-23T07:24:39.081Z,73.90
2018-08-23T07:27:09.300Z,73.60
2018-08-23T07:29:37.931Z,73.90
2018-08-23T07:32:07.708Z,73.60
2018-08-23T07:34:36.728Z,72.80
2018-08-23T07:37:14.258Z,73.00
2018-08-23T07:39:47.079Z,73.10
2018-08-23T07:42:15.499Z,73.10
2018-08-23T07:44:44.024Z,72.60
2018-08-23T07:47:12.452Z,72.40
2018-08-23T07:49:40.949Z,72.00
2018-08-23T07:52:09.440Z,71.50
2018-08-23T07:54:37.817Z,71.40
2018-08-23T07:57:06.376Z,71.20
2018-08-23T07:59:34.855Z,70.70
2018-08-23T08:02:03.303Z,70.30
2018-08-23T08:04:31.824Z,70.10
2018-08-23T08:07:00.329Z,70.30
2018-08-23T08:09:28.747Z,70.20
2018-08-23T08:12:01.895Z,70.00
2018-08-23T08:14:38.590Z,69.90
2018-08-23T08:17:09.022Z,69.80
2018-08-23T08:19:39.812Z,69.30
2018-08-23T08:22:08.207Z,69.80
2018-08-23T08:24:36.726Z,68.50
2018-08-23T08:27:05.282Z,68.60
2018-08-23T08:29:38.773Z,68.90
2018-08-23T08:32:08.602Z,68.60
2018-08-23T08:34:39.678Z,68.10
2018-08-23T08:37:08.116Z,67.20
2018-08-23T08:39:36.586Z,67.30
2018-08-23T08:42:05.111Z,66.40
2018-08-23T08:44:33.568Z,66.80
2018-08-23T08:47:01.984Z,67.20
2018-08-23T08:49:31.336Z,66.40
2018-08-23T08:51:59.726Z,66.40
2018-08-23T08:54:28.208Z,66.00
2018-08-23T08:56:56.954Z,66.00
2018-08-23T08:59:30.304Z,65.90
2018-08-23T09:01:59.180Z,64.90
2018-08-23T09:04:33.047Z,65.50
2018-08-23T09:07:01.497Z,64.70
2018-08-23T09:09:32.836Z,64.60
2018-08-23T09:12:03.259Z,63.90
2018-08-23T09:14:31.701Z,64.90
2018-08-23T09:17:00.982Z,64.90
2018-08-23T09:20:04.707Z,62.80
2018-08-23T09:22:37.364Z,62.20
2018-08-23T09:25:08.270Z,62.50
2018-08-23T09:27:36.703Z,62.20
2018-08-23T09:30:09.492Z,61.90
2018-08-23T09:32:37.930Z,62.70
2018-08-23T09:35:06.775Z,60.30
2018-08-23T09:37:38.506Z,60.10
2018-08-23T09:40:07.762Z,59.90
2018-08-23T09:42:37.040Z,59.60
2018-08-23T09:45:09.002Z,60.40
2018-08-23T09:47:37.466Z,57.80
2018-08-23T09:50:06.576Z,58.60
2018-08-23T09:52:42.273Z,59.10
2018-08-23T09:55:12.224Z,58.90
2018-08-23T09:57:40.895Z,59.00
2018-08-23T10:00:10.711Z,58.70
2018-08-23T10:02:44.537Z,58.10
2018-08-23T10:06:18.058Z,57.70
2018-08-23T10:08:53.589Z,57.60
2018-08-23T10:11:27.572Z,57.40
2018-08-23T10:14:01.349Z,57.30
2018-08-23T10:16:35.006Z,57.10
2018-08-23T10:19:09.634Z,56.60
2018-08-23T10:21:43.531Z,55.70
2018-08-23T10:24:17.531Z,56.00
2018-08-23T10:26:46.257Z,55.80
2018-08-23T10:29:14.646Z,54.90
2018-08-23T10:31:42.989Z,55.00
2018-08-23T10:34:11.422Z,54.60
2018-08-23T10:36:39.794Z,54.20
2018-08-23T10:39:10.999Z,54.60
2018-08-23T10:41:39.437Z,53.70
2018-08-23T10:44:07.904Z,53.00
2018-08-23T10:46:41.524Z,53.10
2018-08-23T10:49:09.904Z,52.50
2018-08-23T10:51:38.254Z,52.20
2018-08-23T10:54:06.695Z,51.70
2018-08-23T10:56:35.094Z,51.60
2018-08-23T10:59:03.504Z,51.70
2018-08-23T11:01:31.964Z,51.40
2018-08-23T11:04:05.592Z,50.90
2018-08-23T11:06:34.528Z,50.50
2018-08-23T11:09:08.438Z,50.80
2018-08-23T11:11:37.738Z,51.00
2018-08-23T11:14:11.815Z,50.30
2018-08-23T11:16:45.728Z,51.00
2018-08-23T11:19:19.684Z,51.20
2018-08-23T11:21:48.085Z,50.60
2018-08-23T11:24:16.438Z,49.90
2018-08-23T11:26:44.805Z,50.20
2018-08-23T11:29:13.251Z,50.00
2018-08-23T11:31:41.635Z,50.50
2018-08-23T11:34:10.176Z,49.80
2018-08-23T11:36:38.623Z,50.00
2018-08-23T11:39:08.548Z,48.60
2018-08-23T11:41:37.146Z,48.30
2018-08-23T11:44:05.644Z,49.10
2018-08-23T11:46:34.117Z,48.90
2018-08-23T11:49:02.572Z,47.10
2018-08-23T11:51:30.975Z,47.40
2018-08-23T11:53:59.446Z,47.00
2018-08-23T11:56:27.950Z,46.80
2018-08-23T11:58:56.571Z,45.80
2018-08-23T12:01:25.024Z,46.00
2018-08-23T12:03:53.390Z,46.10
2018-08-23T12:06:21.866Z,44.90
2018-08-23T12:08:50.338Z,43.80
2018-08-23T12:11:18.838Z,44.00
2018-08-23T12:13:49.203Z,43.70
2018-08-23T12:16:17.835Z,43.80
2018-08-23T12:18:46.523Z,43.90
2018-08-23T12:21:14.942Z,43.60
2018-08-23T12:23:43.485Z,43.20
2018-08-23T12:26:11.980Z,44.00
2018-08-23T12:28:45.847Z,42.90
2018-08-23T12:31:14.362Z,43.00
2018-08-23T12:33:42.783Z,43.30
2018-08-23T12:36:11.279Z,42.80
2018-08-23T12:38:45.229Z,42.50
2018-08-23T12:41:19.164Z,42.50
2018-08-23T12:43:49.689Z,42.70
2018-08-23T12:46:18.320Z,42.70
2018-08-23T12:48:47.177Z,42.60
2018-08-23T12:51:15.601Z,42.40
2018-08-23T12:53:44.258Z,42.60
2018-08-23T12:56:12.835Z,42.50
2018-08-23T12:58:41.342Z,42.70
2018-08-23T13:01:09.767Z,42.10
2018-08-23T13:03:38.221Z,41.60
2018-08-23T13:06:06.745Z,41.70
2018-08-23T13:08:35.242Z,41.90
2018-08-23T13:11:03.701Z,41.70
2018-08-23T13:13:32.102Z,41.30
2018-08-23T13:16:00.648Z,41.50
2018-08-23T13:18:29.115Z,41.40
2018-08-23T13:20:57.491Z,41.80
2018-08-23T13:23:25.918Z,41.50
2018-08-23T13:25:57.506Z,41.20
2018-08-23T13:28:27.152Z,41.20
2018-08-23T13:30:55.745Z,41.50
2018-08-23T13:33:25.307Z,41.50
2018-08-23T13:35:53.721Z,41.60
2018-08-23T13:38:22.113Z,40.70
2018-08-23T13:40:50.552Z,40.70
2018-08-23T13:43:19.096Z,40.90
2018-08-23T13:45:47.528Z,41.40
2018-08-23T13:48:16.035Z,42.10
2018-08-23T13:50:44.568Z,41.70
2018-08-23T13:53:13.231Z,41.90
2018-08-23T13:55:41.677Z,41.90
2018-08-23T13:58:10.372Z,41.60
2018-08-23T14:00:41.055Z,42.00
2018-08-23T14:03:10.431Z,43.00
2018-08-23T14:05:39.919Z,42.70
2018-08-23T14:08:08.633Z,42.50
2018-08-23T14:10:37.035Z,43.10
2018-08-23T14:13:05.830Z,43.20
2018-08-23T14:15:39.699Z,43.30
2018-08-23T14:18:08.361Z,43.30
2018-08-23T14:20:36.848Z,42.60
2018-08-23T14:23:05.242Z,42.10
2018-08-23T14:25:33.659Z,41.60
2018-08-23T14:28:02.044Z,41.30
2018-08-23T14:30:30.536Z,41.20
2018-08-23T14:32:58.959Z,41.70
2018-08-23T14:35:27.437Z,41.90
2018-08-23T14:37:55.934Z,42.10
2018-08-23T14:40:24.414Z,42.40
2018-08-23T14:42:52.869Z,42.60
2018-08-23T14:45:26.567Z,42.80
2018-08-23T14:48:00.412Z,43.10
2018-08-23T14:50:28.963Z,43.00
2018-08-23T14:52:57.559Z,43.00
2018-08-23T14:55:31.461Z,43.30
2018-08-23T14:58:00.075Z,43.50
2018-08-23T15:00:28.672Z,44.00
2018-08-23T15:02:57.211Z,44.10
2018-08-23T15:05:25.602Z,43.80
2018-08-23T15:07:54.059Z,44.10
2018-08-23T15:10:22.541Z,44.20
2018-08-23T15:12:50.943Z,44.20
2018-08-23T15:15:23.718Z,44.40
2018-08-23T15:17:52.224Z,44.30
2018-08-23T15:20:20.606Z,43.90
2018-08-23T15:22:49.096Z,43.60
2018-08-23T15:25:17.541Z,43.60
2018-08-23T15:27:46.011Z,43.80
2018-08-23T15:30:14.498Z,43.90
2018-08-23T15:32:42.940Z,43.80
2018-08-23T15:35:11.292Z,43.80
2018-08-23T15:37:39.738Z,44.10
2018-08-23T15:40:08.845Z,44.20
2018-08-23T15:42:37.310Z,44.50
2018-08-23T15:45:05.942Z,44.60
2018-08-23T15:47:34.455Z,45.00
2018-08-23T15:50:02.963Z,47.20
2018-08-23T15:52:31.369Z,49.20
2018-08-23T15:54:59.890Z,51.00
2018-08-23T15:57:28.332Z,52.50
2018-08-23T15:59:57.005Z,56.30
2018-08-23T16:02:25.590Z,60.50
2018-08-23T16:04:54.168Z,63.00
2018-08-23T16:07:22.603Z,66.20
2018-08-23T16:09:51.135Z,69.60
2018-08-23T16:12:19.523Z,72.50
2018-08-23T16:14:47.956Z,74.10
2018-08-23T16:17:21.801Z,75.70
2018-08-23T16:19:55.704Z,77.30
2018-08-23T16:22:24.223Z,78.20
2018-08-23T16:24:52.703Z,78.40
2018-08-23T16:27:21.247Z,79.10
2018-08-23T16:29:50.948Z,80.00
2018-08-23T16:32:24.683Z,80.20
2018-08-23T16:34:53.420Z,80.20
2018-08-23T16:37:21.933Z,80.00
2018-08-23T16:39:50.326Z,80.80
2018-08-23T16:42:18.972Z,81.70
2018-08-23T16:44:47.687Z,82.50
2018-08-23T16:47:16.200Z,82.70
2018-08-23T16:49:44.590Z,83.30
2018-08-23T16:52:13.009Z,82.80
2018-08-23T16:54:41.499Z,82.60
2018-08-23T16:57:10.096Z,82.20
2018-08-23T16:59:38.608Z,82.20
2018-08-23T17:02:07.307Z,82.20
2018-08-23T17:04:41.084Z,82.50
2018-08-23T17:07:09.561Z,82.30
2018-08-23T17:09:38.108Z,82.20
2018-08-23T17:12:06.643Z,82.30
2018-08-23T17:14:35.136Z,82.20
2018-08-23T17:17:09.209Z,82.00
2018-08-23T17:19:37.689Z,82.30
2018-08-23T17:22:06.215Z,82.30
2018-08-23T17:24:34.866Z,82.60
2018-08-23T17:27:03.342Z,82.70
2018-08-23T17:29:31.858Z,82.60
2018-08-23T17:32:00.434Z,82.80
2018-08-23T17:34:29.014Z,83.20
2018-08-23T17:36:57.396Z,82.80
2018-08-23T17:39:25.855Z,83.30
2018-08-23T17:41:54.298Z,83.20
2018-08-23T17:44:22.821Z,83.20
2018-08-23T17:46:51.599Z,83.10
2018-08-23T17:49:19.967Z,83.50
2018-08-23T17:51:50.411Z,83.40
2018-08-23T17:54:19.115Z,83.70
2018-08-23T17:56:47.581Z,83.90
2018-08-23T17:59:16.044Z,83.60
2018-08-23T18:01:44.457Z,84.40
2018-08-23T18:04:13.026Z,84.60
2018-08-23T18:06:41.690Z,85.10
2018-08-23T18:09:11.986Z,85.30
2018-08-23T18:11:40.531Z,85.50
2018-08-23T18:14:09.127Z,85.70
2018-08-23T18:16:42.907Z,85.60
2018-08-23T18:19:11.870Z,85.20
2018-08-23T18:21:41.502Z,84.90
2018-08-23T18:24:10.009Z,84.90
2018-08-23T18:26:42.699Z,85.00
2018-08-23T18:29:11.288Z,84.40
2018-08-23T18:31:39.787Z,84.60
2018-08-23T18:34:08.401Z,84.50
2018-08-23T18:36:36.911Z,84.70
2018-08-23T18:39:07.794Z,84.20
2018-08-23T18:41:36.247Z,84.30
2018-08-23T18:44:04.614Z,84.60
2018-08-23T18:46:33.094Z,85.20
2018-08-23T18:49:01.829Z,85.50
2018-08-23T18:51:31.421Z,85.90
2018-08-23T18:54:00.442Z,86.40
2018-08-23T18:56:29.679Z,86.10
2018-08-23T18:58:58.582Z,86.60
2018-08-23T19:01:29.316Z,87.00
2018-08-23T19:04:01.389Z,87.30
2018-08-23T19:06:38.645Z,87.70
2018-08-23T19:09:12.063Z,88.40
2018-08-23T19:11:41.666Z,89.40
2018-08-23T19:14:10.445Z,89.10
2018-08-23T19:16:44.504Z,89.10
2018-08-23T19:19:13.944Z,89.70
2018-08-23T19:21:42.663Z,90.00
2018-08-23T19:24:11.186Z,90.00
2018-08-23T19:26:39.565Z,90.00
2018-08-23T19:29:08.111Z,90.10
2018-08-23T19:31:36.488Z,90.50
2018-08-23T19:34:04.995Z,90.30
2018-08-23T19:36:33.495Z,90.20
2018-08-23T19:39:02.077Z,90.30
2018-08-23T19:41:30.714Z,90.40
2018-08-23T19:43:59.110Z,90.30
2018-08-23T19:46:33.206Z,90.40
2018-08-23T19:49:07.133Z,90.30
2018-08-23T19:51:35.576Z,90.30
2018-08-23T19:54:04.022Z,90.40
2018-08-23T19:56:32.959Z,90.40
2018-08-23T19:59:01.457Z,90.50
2018-08-23T20:01:29.908Z,90.50
2018-08-23T20:03:58.315Z,90.30
2018-08-23T20:06:26.828Z,90.50
2018-08-23T20:08:55.256Z,90.60
2018-08-23T20:11:23.672Z,90.40
2018-08-23T20:13:52.042Z,90.50
2018-08-23T20:16:20.467Z,90.60
2018-08-23T20:18:48.923Z,90.80
2018-08-23T20:21:17.337Z,90.80
2018-08-23T20:23:45.963Z,90.70
2018-08-23T20:26:14.511Z,90.60
2018-08-23T20:28:43.001Z,90.60
2018-08-23T20:31:11.504Z,90.60
2018-08-23T20:33:39.967Z,90.50
2018-08-23T20:36:08.421Z,90.60
2018-08-23T20:38:36.891Z,90.90
2018-08-23T20:41:05.473Z,90.70
2018-08-23T20:43:33.908Z,90.90
2018-08-23T20:46:02.373Z,90.90
2018-08-23T20:48:30.883Z,90.90
2018-08-23T20:50:59.408Z,90.80
2018-08-23T20:53:27.814Z,90.90
2018-08-23T20:55:56.368Z,90.70
2018-08-23T20:58:24.812Z,90.70
2018-08-23T21:00:53.210Z,90.70
2018-08-23T21:03:21.652Z,90.60
2018-08-23T21:05:50.353Z,90.60
2018-08-23T21:08:18.751Z,90.40
2018-08-23T21:10:47.215Z,90.60
2018-08-23T21:13:15.623Z,90.70
2018-08-23T21:15:44.047Z,90.50
2018-08-23T21:18:12.602Z,90.40
2018-08-23T21:20:41.830Z,90.40
2018-08-23T21:23:10.443Z,90.30
2018-08-23T21:25:38.798Z,90.40
2018-08-23T21:28:07.408Z,90.40
2018-08-23T21:30:36.813Z,90.60
2018-08-23T21:33:05.250Z,90.60
2018-08-23T21:35:33.812Z,90.30
2018-08-23T21:38:02.359Z,90.40
2018-08-23T21:40:30.868Z,91.00
2018-08-23T21:42:59.287Z,90.60
2018-08-23T21:45:27.711Z,90.70
2018-08-23T21:47:56.123Z,90.70
2018-08-23T21:50:24.575Z,91.50
2018-08-23T21:52:53.156Z,91.20
2018-08-23T21:55:25.857Z,91.20
2018-08-23T21:57:54.514Z,91.20
2018-08-23T22:00:22.897Z,91.30
2018-08-23T22:02:51.370Z,91.40
2018-08-23T22:05:19.885Z,91.20
2018-08-23T22:07:48.287Z,91.00
2018-08-23T22:10:17.132Z,91.20
2018-08-23T22:12:45.481Z,91.10
2018-08-23T22:15:14.026Z,91.00
2018-08-23T22:17:42.403Z,90.80
2018-08-23T22:20:10.873Z,90.80
2018-08-23T22:22:39.329Z,90.70
2018-08-23T22:25:07.806Z,90.80
2018-08-23T22:27:36.247Z,90.70
2018-08-23T22:30:04.801Z,90.80
2018-08-23T22:32:33.331Z,90.90
2018-08-23T22:35:01.713Z,90.90
2018-08-23T22:37:33.291Z,91.00
2018-08-23T22:40:01.669Z,90.90
2018-08-23T22:42:30.491Z,91.00
2018-08-23T22:44:58.988Z,91.00
2018-08-23T22:47:27.527Z,91.00
2018-08-23T22:49:55.935Z,90.90
2018-08-23T22:52:24.394Z,91.20
2018-08-23T22:54:52.788Z,92.40
2018-08-23T22:57:21.372Z,92.30
2018-08-23T22:59:49.763Z,92.50
2018-08-23T23:02:23.543Z,92.10
2018-08-23T23:04:51.917Z,92.20
2018-08-23T23:07:20.291Z,92.40
2018-08-23T23:09:48.685Z,92.00
2018-08-23T23:12:17.071Z,92.90
2018-08-23T23:14:45.542Z,93.30
2018-08-23T23:17:14.008Z,93.80
2018-08-23T23:19:42.600Z,93.60
2018-08-23T23:22:11.209Z,93.40
2018-08-23T23:24:45.159Z,93.50
2018-08-23T23:27:13.585Z,93.70
2018-08-23T23:29:42.032Z,94.10
2018-08-23T23:32:10.542Z,94.50
2018-08-23T23:34:38.945Z,94.70
2018-08-23T23:37:07.479Z,95.20
2018-08-23T23:39:36.108Z,95.20
2018-08-23T23:42:04.671Z,95.00
2018-08-23T23:44:33.122Z,95.00
2018-08-23T23:47:01.529Z,95.10
2018-08-23T23:49:29.901Z,95.70
2018-08-23T23:51:58.322Z,95.10
2018-08-23T23:54:26.784Z,94.90
2018-08-23T23:56:55.195Z,94.70
2018-08-23T23:59:23.775Z,95.40
